sensor_id;sensor_type;location;lat;lon;timestamp;P1;durP1;ratioP1;P2;durP2;ratioP2
30307;SDS011;17114;52.314;8.910;2023-02-28T00:01:25;20.45;;;11.10;;
30307;SDS011;17114;52.314;8.910;2023-02-28T00:03:54;23.00;;;12.07;;
30307;SDS011;17114;52.314;8.910;2023-02-28T00:06:22;27.60;;;11.95;;
30307;SDS011;17114;52.314;8.910;2023-02-28T00:08:50;21.92;;;11.40;;
30307;SDS011;17114;52.314;8.910;2023-02-28T00:11:19;17.48;;;10.25;;
30307;SDS011;17114;52.314;8.910;2023-02-28T00:13:46;26.95;;;11.40;;
30307;SDS011;17114;52.314;8.910;2023-02-28T00:16:15;25.80;;;13.63;;
30307;SDS011;17114;52.314;8.910;2023-02-28T00:18:46;26.20;;;13.52;;
30307;SDS011;17114;52.314;8.910;2023-02-28T00:21:17;23.83;;;13.23;;
30307;SDS011;17114;52.314;8.910;2023-02-28T00:23:46;27.35;;;13.48;;
30307;SDS011;17114;52.314;8.910;2023-02-28T00:26:13;27.80;;;12.80;;
30307;SDS011;17114;52.314;8.910;2023-02-28T00:28:42;27.45;;;12.98;;
30307;SDS011;17114;52.314;8.910;2023-02-28T00:31:09;25.08;;;13.30;;
30307;SDS011;17114;52.314;8.910;2023-02-28T00:33:36;26.83;;;13.73;;
30307;SDS011;17114;52.314;8.910;2023-02-28T00:36:04;23.85;;;12.13;;
30307;SDS011;17114;52.314;8.910;2023-02-28T00:38:33;23.85;;;12.70;;
30307;SDS011;17114;52.314;8.910;2023-02-28T00:41:03;26.13;;;12.77;;
30307;SDS011;17114;52.314;8.910;2023-02-28T00:43:31;23.75;;;12.77;;
30307;SDS011;17114;52.314;8.910;2023-02-28T00:46:00;25.30;;;12.90;;
30307;SDS011;17114;52.314;8.910;2023-02-28T00:48:27;27.77;;;13.00;;
30307;SDS011;17114;52.314;8.910;2023-02-28T00:50:54;25.02;;;12.93;;
30307;SDS011;17114;52.314;8.910;2023-02-28T00:53:21;28.00;;;13.50;;
30307;SDS011;17114;52.314;8.910;2023-02-28T00:55:49;25.50;;;12.25;;
30307;SDS011;17114;52.314;8.910;2023-02-28T00:58:16;27.45;;;13.07;;
30307;SDS011;17114;52.314;8.910;2023-02-28T01:00:43;24.10;;;12.38;;
30307;SDS011;17114;52.314;8.910;2023-02-28T01:03:16;24.33;;;12.73;;
30307;SDS011;17114;52.314;8.910;2023-02-28T01:05:46;25.83;;;12.15;;
30307;SDS011;17114;52.314;8.910;2023-02-28T01:08:14;25.00;;;12.73;;
30307;SDS011;17114;52.314;8.910;2023-02-28T01:10:41;24.60;;;11.68;;
30307;SDS011;17114;52.314;8.910;2023-02-28T01:13:12;23.65;;;11.68;;
30307;SDS011;17114;52.314;8.910;2023-02-28T01:15:48;21.98;;;11.23;;
30307;SDS011;17114;52.314;8.910;2023-02-28T01:18:18;20.10;;;11.48;;
30307;SDS011;17114;52.314;8.910;2023-02-28T01:20:47;24.77;;;12.10;;
30307;SDS011;17114;52.314;8.910;2023-02-28T01:23:14;18.00;;;10.85;;
30307;SDS011;17114;52.314;8.910;2023-02-28T01:25:41;19.10;;;10.70;;
30307;SDS011;17114;52.314;8.910;2023-02-28T01:28:08;20.17;;;11.05;;
30307;SDS011;17114;52.314;8.910;2023-02-28T01:30:35;20.05;;;10.77;;
30307;SDS011;17114;52.314;8.910;2023-02-28T01:33:02;18.63;;;11.13;;
30307;SDS011;17114;52.314;8.910;2023-02-28T01:35:32;20.63;;;11.43;;
30307;SDS011;17114;52.314;8.910;2023-02-28T01:38:02;21.52;;;11.13;;
30307;SDS011;17114;52.314;8.910;2023-02-28T01:40:46;26.17;;;12.10;;
30307;SDS011;17114;52.314;8.910;2023-02-28T01:43:20;21.45;;;10.70;;
30307;SDS011;17114;52.314;8.910;2023-02-28T01:45:47;19.35;;;10.98;;
30307;SDS011;17114;52.314;8.910;2023-02-28T01:48:14;21.90;;;10.32;;
30307;SDS011;17114;52.314;8.910;2023-02-28T01:50:42;18.17;;;10.30;;
30307;SDS011;17114;52.314;8.910;2023-02-28T01:53:13;20.40;;;11.10;;
30307;SDS011;17114;52.314;8.910;2023-02-28T01:55:42;19.83;;;10.73;;
30307;SDS011;17114;52.314;8.910;2023-02-28T01:58:14;23.08;;;11.45;;
30307;SDS011;17114;52.314;8.910;2023-02-28T02:00:42;20.88;;;11.80;;
30307;SDS011;17114;52.314;8.910;2023-02-28T02:03:10;18.48;;;11.27;;
30307;SDS011;17114;52.314;8.910;2023-02-28T02:05:42;23.25;;;11.57;;
30307;SDS011;17114;52.314;8.910;2023-02-28T02:08:18;19.35;;;10.25;;
30307;SDS011;17114;52.314;8.910;2023-02-28T02:10:58;16.42;;;8.73;;
30307;SDS011;17114;52.314;8.910;2023-02-28T02:13:47;19.77;;;11.10;;
30307;SDS011;17114;52.314;8.910;2023-02-28T02:25:12;19.50;;;11.02;;
30307;SDS011;17114;52.314;8.910;2023-02-28T02:36:00;21.65;;;11.10;;
30307;SDS011;17114;52.314;8.910;2023-02-28T02:38:50;23.35;;;11.65;;
30307;SDS011;17114;52.314;8.910;2023-02-28T02:41:27;21.45;;;11.85;;
30307;SDS011;17114;52.314;8.910;2023-02-28T02:44:12;22.80;;;11.65;;
30307;SDS011;17114;52.314;8.910;2023-02-28T02:46:45;24.67;;;12.00;;
30307;SDS011;17114;52.314;8.910;2023-02-28T02:49:19;23.45;;;11.48;;
30307;SDS011;17114;52.314;8.910;2023-02-28T02:51:49;23.70;;;11.65;;
30307;SDS011;17114;52.314;8.910;2023-02-28T02:54:26;22.70;;;12.43;;
30307;SDS011;17114;52.314;8.910;2023-02-28T02:56:56;23.00;;;11.70;;
30307;SDS011;17114;52.314;8.910;2023-02-28T02:59:27;26.27;;;12.52;;
30307;SDS011;17114;52.314;8.910;2023-02-28T03:01:57;22.10;;;11.75;;
30307;SDS011;17114;52.314;8.910;2023-02-28T03:04:28;20.98;;;10.95;;
30307;SDS011;17114;52.314;8.910;2023-02-28T03:06:59;23.95;;;12.15;;
30307;SDS011;17114;52.314;8.910;2023-02-28T03:09:26;23.63;;;12.20;;
30307;SDS011;17114;52.314;8.910;2023-02-28T03:11:54;23.92;;;12.13;;
30307;SDS011;17114;52.314;8.910;2023-02-28T03:14:25;20.30;;;11.60;;
30307;SDS011;17114;52.314;8.910;2023-02-28T03:17:17;20.85;;;11.70;;
30307;SDS011;17114;52.314;8.910;2023-02-28T03:25:04;21.63;;;11.32;;
30307;SDS011;17114;52.314;8.910;2023-02-28T03:27:54;24.50;;;12.75;;
30307;SDS011;17114;52.314;8.910;2023-02-28T03:33:27;22.27;;;11.30;;
30307;SDS011;17114;52.314;8.910;2023-02-28T03:36:04;22.15;;;12.45;;
30307;SDS011;17114;52.314;8.910;2023-02-28T03:38:46;22.67;;;10.95;;
30307;SDS011;17114;52.314;8.910;2023-02-28T03:41:30;24.05;;;12.10;;
30307;SDS011;17114;52.314;8.910;2023-02-28T03:44:04;19.13;;;11.38;;
30307;SDS011;17114;52.314;8.910;2023-02-28T03:46:36;21.60;;;11.05;;
30307;SDS011;17114;52.314;8.910;2023-02-28T03:49:18;24.48;;;11.75;;
30307;SDS011;17114;52.314;8.910;2023-02-28T03:51:51;23.17;;;11.93;;
30307;SDS011;17114;52.314;8.910;2023-02-28T03:54:22;23.40;;;10.82;;
30307;SDS011;17114;52.314;8.910;2023-02-28T03:57:23;18.65;;;11.00;;
30307;SDS011;17114;52.314;8.910;2023-02-28T03:59:56;18.83;;;11.23;;
30307;SDS011;17114;52.314;8.910;2023-02-28T04:02:27;21.20;;;11.25;;
30307;SDS011;17114;52.314;8.910;2023-02-28T04:04:54;22.80;;;10.93;;
30307;SDS011;17114;52.314;8.910;2023-02-28T04:07:21;20.70;;;11.50;;
30307;SDS011;17114;52.314;8.910;2023-02-28T04:09:48;20.27;;;10.32;;
30307;SDS011;17114;52.314;8.910;2023-02-28T04:12:15;23.63;;;12.02;;
30307;SDS011;17114;52.314;8.910;2023-02-28T04:14:42;25.50;;;10.85;;
30307;SDS011;17114;52.314;8.910;2023-02-28T04:17:09;21.27;;;10.80;;
30307;SDS011;17114;52.314;8.910;2023-02-28T04:19:36;22.50;;;11.15;;
30307;SDS011;17114;52.314;8.910;2023-02-28T04:22:03;20.52;;;10.45;;
30307;SDS011;17114;52.314;8.910;2023-02-28T04:24:30;22.23;;;11.73;;
30307;SDS011;17114;52.314;8.910;2023-02-28T04:26:57;22.55;;;10.85;;
30307;SDS011;17114;52.314;8.910;2023-02-28T04:29:29;18.35;;;11.35;;
30307;SDS011;17114;52.314;8.910;2023-02-28T04:31:58;22.58;;;11.10;;
30307;SDS011;17114;52.314;8.910;2023-02-28T04:34:27;23.77;;;11.75;;
30307;SDS011;17114;52.314;8.910;2023-02-28T04:36:55;24.38;;;11.60;;
30307;SDS011;17114;52.314;8.910;2023-02-28T04:39:37;18.50;;;10.60;;
30307;SDS011;17114;52.314;8.910;2023-02-28T04:42:05;21.27;;;10.73;;
30307;SDS011;17114;52.314;8.910;2023-02-28T04:44:32;21.83;;;11.20;;
30307;SDS011;17114;52.314;8.910;2023-02-28T04:46:59;20.65;;;10.32;;
30307;SDS011;17114;52.314;8.910;2023-02-28T04:49:26;21.88;;;11.40;;
30307;SDS011;17114;52.314;8.910;2023-02-28T04:51:53;23.05;;;12.05;;
30307;SDS011;17114;52.314;8.910;2023-02-28T04:54:21;22.42;;;10.30;;
30307;SDS011;17114;52.314;8.910;2023-02-28T04:56:48;24.55;;;11.88;;
30307;SDS011;17114;52.314;8.910;2023-02-28T04:59:16;19.20;;;11.50;;
30307;SDS011;17114;52.314;8.910;2023-02-28T05:01:47;22.65;;;11.30;;
30307;SDS011;17114;52.314;8.910;2023-02-28T05:04:16;18.90;;;11.38;;
30307;SDS011;17114;52.314;8.910;2023-02-28T05:06:43;19.83;;;10.73;;
30307;SDS011;17114;52.314;8.910;2023-02-28T05:09:10;22.23;;;11.57;;
30307;SDS011;17114;52.314;8.910;2023-02-28T05:11:40;22.23;;;11.27;;
30307;SDS011;17114;52.314;8.910;2023-02-28T05:14:11;19.20;;;10.48;;
30307;SDS011;17114;52.314;8.910;2023-02-28T05:16:40;23.60;;;11.52;;
30307;SDS011;17114;52.314;8.910;2023-02-28T05:19:07;20.23;;;12.00;;
30307;SDS011;17114;52.314;8.910;2023-02-28T05:21:38;22.45;;;11.02;;
30307;SDS011;17114;52.314;8.910;2023-02-28T05:24:32;21.50;;;11.60;;
30307;SDS011;17114;52.314;8.910;2023-02-28T05:26:59;20.48;;;11.70;;
30307;SDS011;17114;52.314;8.910;2023-02-28T05:29:26;20.98;;;11.85;;
30307;SDS011;17114;52.314;8.910;2023-02-28T05:31:53;21.08;;;11.57;;
30307;SDS011;17114;52.314;8.910;2023-02-28T05:34:20;20.00;;;11.07;;
30307;SDS011;17114;52.314;8.910;2023-02-28T05:36:47;19.70;;;10.82;;
30307;SDS011;17114;52.314;8.910;2023-02-28T05:39:14;20.67;;;11.68;;
30307;SDS011;17114;52.314;8.910;2023-02-28T05:41:41;23.33;;;12.70;;
30307;SDS011;17114;52.314;8.910;2023-02-28T05:44:09;22.70;;;11.35;;
30307;SDS011;17114;52.314;8.910;2023-02-28T05:46:37;22.52;;;11.68;;
30307;SDS011;17114;52.314;8.910;2023-02-28T05:49:04;19.85;;;11.55;;
30307;SDS011;17114;52.314;8.910;2023-02-28T05:51:32;22.17;;;11.20;;
30307;SDS011;17114;52.314;8.910;2023-02-28T05:54:00;25.33;;;12.73;;
30307;SDS011;17114;52.314;8.910;2023-02-28T05:56:28;24.67;;;12.52;;
30307;SDS011;17114;52.314;8.910;2023-02-28T05:58:55;22.75;;;12.32;;
30307;SDS011;17114;52.314;8.910;2023-02-28T06:01:33;21.38;;;10.90;;
30307;SDS011;17114;52.314;8.910;2023-02-28T06:04:03;21.50;;;11.02;;
30307;SDS011;17114;52.314;8.910;2023-02-28T06:06:31;24.75;;;11.43;;
30307;SDS011;17114;52.314;8.910;2023-02-28T06:09:05;23.83;;;11.07;;
30307;SDS011;17114;52.314;8.910;2023-02-28T06:11:32;17.65;;;10.90;;
30307;SDS011;17114;52.314;8.910;2023-02-28T06:14:00;23.52;;;10.68;;
30307;SDS011;17114;52.314;8.910;2023-02-28T06:16:28;16.10;;;10.43;;
30307;SDS011;17114;52.314;8.910;2023-02-28T06:18:57;20.83;;;10.77;;
30307;SDS011;17114;52.314;8.910;2023-02-28T06:21:28;23.33;;;10.60;;
30307;SDS011;17114;52.314;8.910;2023-02-28T06:23:56;21.10;;;11.10;;
30307;SDS011;17114;52.314;8.910;2023-02-28T06:26:24;20.55;;;11.75;;
30307;SDS011;17114;52.314;8.910;2023-02-28T06:28:51;20.27;;;11.40;;
30307;SDS011;17114;52.314;8.910;2023-02-28T06:31:19;22.27;;;11.05;;
30307;SDS011;17114;52.314;8.910;2023-02-28T06:33:46;21.63;;;11.40;;
30307;SDS011;17114;52.314;8.910;2023-02-28T06:36:14;21.92;;;10.85;;
30307;SDS011;17114;52.314;8.910;2023-02-28T06:38:42;23.70;;;11.23;;
30307;SDS011;17114;52.314;8.910;2023-02-28T06:41:10;18.33;;;10.95;;
30307;SDS011;17114;52.314;8.910;2023-02-28T06:43:39;20.65;;;11.13;;
30307;SDS011;17114;52.314;8.910;2023-02-28T06:46:08;23.65;;;11.75;;
30307;SDS011;17114;52.314;8.910;2023-02-28T06:48:38;18.50;;;10.38;;
30307;SDS011;17114;52.314;8.910;2023-02-28T06:51:06;22.27;;;10.32;;
30307;SDS011;17114;52.314;8.910;2023-02-28T06:53:35;22.27;;;11.75;;
30307;SDS011;17114;52.314;8.910;2023-02-28T06:56:06;18.65;;;10.98;;
30307;SDS011;17114;52.314;8.910;2023-02-28T06:58:34;17.90;;;9.60;;
30307;SDS011;17114;52.314;8.910;2023-02-28T07:01:01;19.35;;;10.90;;
30307;SDS011;17114;52.314;8.910;2023-02-28T07:03:28;20.33;;;10.38;;
30307;SDS011;17114;52.314;8.910;2023-02-28T07:05:59;17.40;;;10.23;;
30307;SDS011;17114;52.314;8.910;2023-02-28T07:08:26;22.10;;;11.60;;
30307;SDS011;17114;52.314;8.910;2023-02-28T07:10:54;19.48;;;10.77;;
30307;SDS011;17114;52.314;8.910;2023-02-28T07:13:22;20.08;;;11.05;;
30307;SDS011;17114;52.314;8.910;2023-02-28T07:15:56;19.63;;;10.93;;
30307;SDS011;17114;52.314;8.910;2023-02-28T07:18:27;21.20;;;11.52;;
30307;SDS011;17114;52.314;8.910;2023-02-28T07:20:54;24.27;;;12.00;;
30307;SDS011;17114;52.314;8.910;2023-02-28T07:23:22;24.17;;;12.73;;
30307;SDS011;17114;52.314;8.910;2023-02-28T07:25:49;27.85;;;12.98;;
30307;SDS011;17114;52.314;8.910;2023-02-28T07:28:16;25.25;;;14.73;;
30307;SDS011;17114;52.314;8.910;2023-02-28T07:30:44;23.50;;;15.48;;
30307;SDS011;17114;52.314;8.910;2023-02-28T07:33:11;22.45;;;14.35;;
30307;SDS011;17114;52.314;8.910;2023-02-28T07:35:38;22.70;;;13.20;;
30307;SDS011;17114;52.314;8.910;2023-02-28T07:38:05;18.92;;;13.40;;
30307;SDS011;17114;52.314;8.910;2023-02-28T07:40:34;19.02;;;12.43;;
30307;SDS011;17114;52.314;8.910;2023-02-28T07:43:02;20.80;;;13.07;;
30307;SDS011;17114;52.314;8.910;2023-02-28T07:45:29;15.88;;;10.68;;
30307;SDS011;17114;52.314;8.910;2023-02-28T07:48:00;18.60;;;10.88;;
30307;SDS011;17114;52.314;8.910;2023-02-28T07:50:28;14.30;;;9.55;;
30307;SDS011;17114;52.314;8.910;2023-02-28T07:52:58;16.27;;;9.68;;
30307;SDS011;17114;52.314;8.910;2023-02-28T07:55:25;15.27;;;8.68;;
30307;SDS011;17114;52.314;8.910;2023-02-28T07:57:52;13.13;;;8.43;;
30307;SDS011;17114;52.314;8.910;2023-02-28T08:00:20;16.08;;;7.95;;
30307;SDS011;17114;52.314;8.910;2023-02-28T08:02:48;20.35;;;8.82;;
30307;SDS011;17114;52.314;8.910;2023-02-28T08:05:15;15.68;;;8.82;;
30307;SDS011;17114;52.314;8.910;2023-02-28T08:07:48;14.30;;;8.65;;
30307;SDS011;17114;52.314;8.910;2023-02-28T08:10:15;18.42;;;8.77;;
30307;SDS011;17114;52.314;8.910;2023-02-28T08:12:43;19.65;;;8.63;;
30307;SDS011;17114;52.314;8.910;2023-02-28T08:15:11;14.52;;;8.52;;
30307;SDS011;17114;52.314;8.910;2023-02-28T08:17:38;15.70;;;9.18;;
30307;SDS011;17114;52.314;8.910;2023-02-28T08:20:05;16.52;;;8.68;;
30307;SDS011;17114;52.314;8.910;2023-02-28T08:22:32;15.02;;;9.40;;
30307;SDS011;17114;52.314;8.910;2023-02-28T08:24:59;15.35;;;9.27;;
30307;SDS011;17114;52.314;8.910;2023-02-28T08:27:26;16.83;;;9.75;;
30307;SDS011;17114;52.314;8.910;2023-02-28T08:29:53;16.17;;;8.90;;
30307;SDS011;17114;52.314;8.910;2023-02-28T08:32:20;16.83;;;9.23;;
30307;SDS011;17114;52.314;8.910;2023-02-28T08:34:55;15.48;;;8.25;;
30307;SDS011;17114;52.314;8.910;2023-02-28T08:37:23;15.07;;;8.65;;
30307;SDS011;17114;52.314;8.910;2023-02-28T08:39:50;14.88;;;8.88;;
30307;SDS011;17114;52.314;8.910;2023-02-28T08:42:21;12.57;;;8.13;;
30307;SDS011;17114;52.314;8.910;2023-02-28T08:44:48;11.70;;;7.30;;
30307;SDS011;17114;52.314;8.910;2023-02-28T08:47:15;10.65;;;6.57;;
30307;SDS011;17114;52.314;8.910;2023-02-28T08:49:42;9.80;;;6.57;;
30307;SDS011;17114;52.314;8.910;2023-02-28T08:52:09;9.10;;;6.55;;
30307;SDS011;17114;52.314;8.910;2023-02-28T08:54:36;9.05;;;6.38;;
30307;SDS011;17114;52.314;8.910;2023-02-28T08:57:03;9.90;;;5.50;;
30307;SDS011;17114;52.314;8.910;2023-02-28T08:59:30;6.38;;;5.00;;
30307;SDS011;17114;52.314;8.910;2023-02-28T09:01:57;9.05;;;5.35;;
30307;SDS011;17114;52.314;8.910;2023-02-28T09:04:24;8.75;;;4.75;;
30307;SDS011;17114;52.314;8.910;2023-02-28T09:06:51;5.78;;;4.55;;
30307;SDS011;17114;52.314;8.910;2023-02-28T09:09:18;7.05;;;4.63;;
30307;SDS011;17114;52.314;8.910;2023-02-28T09:11:45;8.35;;;5.35;;
30307;SDS011;17114;52.314;8.910;2023-02-28T09:14:14;8.23;;;5.55;;
30307;SDS011;17114;52.314;8.910;2023-02-28T09:16:43;7.55;;;5.55;;
30307;SDS011;17114;52.314;8.910;2023-02-28T09:19:11;10.00;;;5.55;;
30307;SDS011;17114;52.314;8.910;2023-02-28T09:21:38;10.02;;;5.20;;
30307;SDS011;17114;52.314;8.910;2023-02-28T09:24:05;6.80;;;4.70;;
30307;SDS011;17114;52.314;8.910;2023-02-28T09:26:33;7.05;;;4.88;;
30307;SDS011;17114;52.314;8.910;2023-02-28T09:29:12;5.55;;;3.60;;
30307;SDS011;17114;52.314;8.910;2023-02-28T09:31:40;5.65;;;3.53;;
30307;SDS011;17114;52.314;8.910;2023-02-28T09:34:07;5.43;;;3.53;;
30307;SDS011;17114;52.314;8.910;2023-02-28T09:36:35;6.25;;;3.58;;
30307;SDS011;17114;52.314;8.910;2023-02-28T09:39:11;8.38;;;4.03;;
30307;SDS011;17114;52.314;8.910;2023-02-28T09:41:42;6.10;;;4.20;;
30307;SDS011;17114;52.314;8.910;2023-02-28T09:46:57;6.18;;;4.28;;
30307;SDS011;17114;52.314;8.910;2023-02-28T09:49:46;8.48;;;3.85;;
30307;SDS011;17114;52.314;8.910;2023-02-28T09:52:15;7.32;;;4.15;;
30307;SDS011;17114;52.314;8.910;2023-02-28T09:54:45;5.82;;;4.25;;
30307;SDS011;17114;52.314;8.910;2023-02-28T09:57:15;6.75;;;4.10;;
30307;SDS011;17114;52.314;8.910;2023-02-28T10:00:07;7.15;;;4.70;;
30307;SDS011;17114;52.314;8.910;2023-02-28T10:02:55;6.40;;;3.85;;
30307;SDS011;17114;52.314;8.910;2023-02-28T10:08:22;8.23;;;4.03;;
30307;SDS011;17114;52.314;8.910;2023-02-28T10:10:55;6.82;;;4.20;;
30307;SDS011;17114;52.314;8.910;2023-02-28T10:13:39;8.45;;;4.32;;
30307;SDS011;17114;52.314;8.910;2023-02-28T10:16:25;7.68;;;3.58;;
30307;SDS011;17114;52.314;8.910;2023-02-28T10:19:05;5.28;;;3.53;;
30307;SDS011;17114;52.314;8.910;2023-02-28T10:21:42;6.57;;;3.38;;
30307;SDS011;17114;52.314;8.910;2023-02-28T10:24:23;7.85;;;3.00;;
30307;SDS011;17114;52.314;8.910;2023-02-28T10:26:59;4.85;;;1.92;;
30307;SDS011;17114;52.314;8.910;2023-02-28T10:29:32;5.38;;;3.22;;
30307;SDS011;17114;52.314;8.910;2023-02-28T10:32:01;5.40;;;3.15;;
30307;SDS011;17114;52.314;8.910;2023-02-28T10:34:29;8.45;;;3.03;;
30307;SDS011;17114;52.314;8.910;2023-02-28T10:36:57;7.45;;;3.30;;
30307;SDS011;17114;52.314;8.910;2023-02-28T10:39:37;4.38;;;2.35;;
30307;SDS011;17114;52.314;8.910;2023-02-28T10:42:25;5.07;;;2.20;;
30307;SDS011;17114;52.314;8.910;2023-02-28T10:45:04;3.85;;;2.03;;
30307;SDS011;17114;52.314;8.910;2023-02-28T10:47:34;3.35;;;1.88;;
30307;SDS011;17114;52.314;8.910;2023-02-28T10:50:26;3.47;;;1.95;;
30307;SDS011;17114;52.314;8.910;2023-02-28T10:52:55;3.85;;;2.10;;
30307;SDS011;17114;52.314;8.910;2023-02-28T10:55:43;4.90;;;1.80;;
30307;SDS011;17114;52.314;8.910;2023-02-28T10:58:20;4.32;;;2.10;;
30307;SDS011;17114;52.314;8.910;2023-02-28T11:00:49;4.57;;;2.25;;
30307;SDS011;17114;52.314;8.910;2023-02-28T11:03:24;3.30;;;2.03;;
30307;SDS011;17114;52.314;8.910;2023-02-28T11:06:06;4.20;;;2.00;;
30307;SDS011;17114;52.314;8.910;2023-02-28T11:08:34;4.68;;;2.08;;
30307;SDS011;17114;52.314;8.910;2023-02-28T11:11:12;4.57;;;1.88;;
30307;SDS011;17114;52.314;8.910;2023-02-28T11:13:39;3.33;;;1.80;;
30307;SDS011;17114;52.314;8.910;2023-02-28T11:16:09;3.25;;;2.03;;
30307;SDS011;17114;52.314;8.910;2023-02-28T11:18:52;3.17;;;1.67;;
30307;SDS011;17114;52.314;8.910;2023-02-28T11:21:29;2.50;;;1.80;;
30307;SDS011;17114;52.314;8.910;2023-02-28T11:26:46;3.10;;;1.70;;
30307;SDS011;17114;52.314;8.910;2023-02-28T11:29:18;2.85;;;1.67;;
30307;SDS011;17114;52.314;8.910;2023-02-28T11:32:11;2.95;;;1.50;;
30307;SDS011;17114;52.314;8.910;2023-02-28T11:34:46;3.50;;;2.00;;
30307;SDS011;17114;52.314;8.910;2023-02-28T11:37:26;5.43;;;1.85;;
30307;SDS011;17114;52.314;8.910;2023-02-28T11:39:54;4.22;;;2.17;;
30307;SDS011;17114;52.314;8.910;2023-02-28T11:42:35;4.93;;;2.17;;
30307;SDS011;17114;52.314;8.910;2023-02-28T11:55:59;3.85;;;2.20;;
30307;SDS011;17114;52.314;8.910;2023-02-28T12:01:29;7.22;;;2.40;;
30307;SDS011;17114;52.314;8.910;2023-02-28T12:04:22;5.13;;;2.45;;
30307;SDS011;17114;52.314;8.910;2023-02-28T12:07:18;6.20;;;2.20;;
30307;SDS011;17114;52.314;8.910;2023-02-28T12:27:01;6.43;;;3.38;;
30307;SDS011;17114;52.314;8.910;2023-02-28T12:32:38;5.25;;;3.08;;
30307;SDS011;17114;52.314;8.910;2023-02-28T12:40:13;6.88;;;3.65;;
30307;SDS011;17114;52.314;8.910;2023-02-28T12:42:46;5.85;;;4.18;;
30307;SDS011;17114;52.314;8.910;2023-02-28T12:45:18;5.80;;;3.72;;
30307;SDS011;17114;52.314;8.910;2023-02-28T12:47:51;8.23;;;4.68;;
30307;SDS011;17114;52.314;8.910;2023-02-28T13:01:08;5.75;;;3.00;;
30307;SDS011;17114;52.314;8.910;2023-02-28T13:07:06;4.40;;;2.30;;
30307;SDS011;17114;52.314;8.910;2023-02-28T13:09:57;4.78;;;2.70;;
30307;SDS011;17114;52.314;8.910;2023-02-28T13:12:26;3.95;;;2.83;;
30307;SDS011;17114;52.314;8.910;2023-02-28T13:20:53;4.55;;;2.72;;
30307;SDS011;17114;52.314;8.910;2023-02-28T13:26:07;4.40;;;2.22;;
30307;SDS011;17114;52.314;8.910;2023-02-28T13:31:48;3.10;;;2.10;;
30307;SDS011;17114;52.314;8.910;2023-02-28T13:34:38;4.70;;;2.58;;
30307;SDS011;17114;52.314;8.910;2023-02-28T13:39:56;4.25;;;2.30;;
30307;SDS011;17114;52.314;8.910;2023-02-28T13:42:33;4.35;;;1.90;;
30307;SDS011;17114;52.314;8.910;2023-02-28T14:01:26;4.88;;;2.88;;
30307;SDS011;17114;52.314;8.910;2023-02-28T14:07:00;4.30;;;2.10;;
30307;SDS011;17114;52.314;8.910;2023-02-28T14:13:03;5.80;;;2.15;;
30307;SDS011;17114;52.314;8.910;2023-02-28T14:15:26;6.07;;;2.40;;
30307;SDS011;17114;52.314;8.910;2023-02-28T14:17:54;4.70;;;2.30;;
30307;SDS011;17114;52.314;8.910;2023-02-28T14:20:22;3.70;;;2.17;;
30307;SDS011;17114;52.314;8.910;2023-02-28T14:23:00;4.18;;;2.13;;
30307;SDS011;17114;52.314;8.910;2023-02-28T14:33:31;3.75;;;2.15;;
30307;SDS011;17114;52.314;8.910;2023-02-28T14:36:06;5.38;;;2.30;;
30307;SDS011;17114;52.314;8.910;2023-02-28T14:38:39;3.78;;;2.10;;
30307;SDS011;17114;52.314;8.910;2023-02-28T14:41:21;3.53;;;2.05;;
30307;SDS011;17114;52.314;8.910;2023-02-28T14:43:53;9.25;;;2.33;;
30307;SDS011;17114;52.314;8.910;2023-02-28T14:46:37;3.65;;;2.03;;
30307;SDS011;17114;52.314;8.910;2023-02-28T14:49:11;2.78;;;1.83;;
30307;SDS011;17114;52.314;8.910;2023-02-28T14:51:44;7.00;;;2.10;;
30307;SDS011;17114;52.314;8.910;2023-02-28T14:54:14;5.82;;;2.95;;
30307;SDS011;17114;52.314;8.910;2023-02-28T14:56:42;6.63;;;2.22;;
30307;SDS011;17114;52.314;8.910;2023-02-28T14:59:22;2.63;;;1.80;;
30307;SDS011;17114;52.314;8.910;2023-02-28T15:02:14;3.38;;;1.88;;
30307;SDS011;17114;52.314;8.910;2023-02-28T15:04:56;4.28;;;2.35;;
30307;SDS011;17114;52.314;8.910;2023-02-28T15:07:24;4.78;;;2.30;;
30307;SDS011;17114;52.314;8.910;2023-02-28T15:13:00;5.90;;;3.20;;
30307;SDS011;17114;52.314;8.910;2023-02-28T15:15:55;5.93;;;3.08;;
30307;SDS011;17114;52.314;8.910;2023-02-28T15:18:41;7.30;;;3.42;;
30307;SDS011;17114;52.314;8.910;2023-02-28T15:21:15;3.15;;;1.50;;
30307;SDS011;17114;52.314;8.910;2023-02-28T15:23:52;5.63;;;2.20;;
30307;SDS011;17114;52.314;8.910;2023-02-28T15:26:22;3.65;;;2.70;;
30307;SDS011;17114;52.314;8.910;2023-02-28T15:28:56;7.53;;;3.38;;
30307;SDS011;17114;52.314;8.910;2023-02-28T15:31:32;7.28;;;2.78;;
30307;SDS011;17114;52.314;8.910;2023-02-28T15:34:23;8.20;;;3.05;;
30307;SDS011;17114;52.314;8.910;2023-02-28T15:43:17;4.90;;;3.70;;
30307;SDS011;17114;52.314;8.910;2023-02-28T15:46:09;5.70;;;2.92;;
30307;SDS011;17114;52.314;8.910;2023-02-28T15:48:43;5.60;;;2.88;;
30307;SDS011;17114;52.314;8.910;2023-02-28T15:51:18;6.60;;;3.15;;
30307;SDS011;17114;52.314;8.910;2023-02-28T15:53:51;8.65;;;4.90;;
30307;SDS011;17114;52.314;8.910;2023-02-28T15:56:27;6.18;;;3.55;;
30307;SDS011;17114;52.314;8.910;2023-02-28T15:59:01;6.32;;;3.25;;
30307;SDS011;17114;52.314;8.910;2023-02-28T16:01:36;4.57;;;2.95;;
30307;SDS011;17114;52.314;8.910;2023-02-28T16:04:16;8.10;;;4.72;;
30307;SDS011;17114;52.314;8.910;2023-02-28T16:09:25;9.10;;;4.03;;
30307;SDS011;17114;52.314;8.910;2023-02-28T16:11:55;6.47;;;3.80;;
30307;SDS011;17114;52.314;8.910;2023-02-28T16:14:24;6.20;;;3.13;;
30307;SDS011;17114;52.314;8.910;2023-02-28T16:16:54;4.75;;;3.40;;
30307;SDS011;17114;52.314;8.910;2023-02-28T16:19:23;10.32;;;3.50;;
30307;SDS011;17114;52.314;8.910;2023-02-28T16:21:50;6.22;;;3.33;;
30307;SDS011;17114;52.314;8.910;2023-02-28T16:24:17;5.07;;;3.38;;
30307;SDS011;17114;52.314;8.910;2023-02-28T16:26:47;5.32;;;3.42;;
30307;SDS011;17114;52.314;8.910;2023-02-28T16:29:27;8.13;;;5.18;;
30307;SDS011;17114;52.314;8.910;2023-02-28T16:31:58;11.38;;;8.00;;
30307;SDS011;17114;52.314;8.910;2023-02-28T16:34:25;8.52;;;5.70;;
30307;SDS011;17114;52.314;8.910;2023-02-28T16:36:53;9.43;;;4.70;;
30307;SDS011;17114;52.314;8.910;2023-02-28T16:39:20;9.60;;;4.07;;
30307;SDS011;17114;52.314;8.910;2023-02-28T16:41:47;6.13;;;4.20;;
30307;SDS011;17114;52.314;8.910;2023-02-28T16:44:37;7.00;;;4.28;;
30307;SDS011;17114;52.314;8.910;2023-02-28T16:47:03;10.27;;;5.80;;
30307;SDS011;17114;52.314;8.910;2023-02-28T16:49:31;7.85;;;4.63;;
30307;SDS011;17114;52.314;8.910;2023-02-28T16:51:58;8.50;;;3.72;;
30307;SDS011;17114;52.314;8.910;2023-02-28T16:54:25;9.65;;;5.70;;
30307;SDS011;17114;52.314;8.910;2023-02-28T16:56:52;7.63;;;4.20;;
30307;SDS011;17114;52.314;8.910;2023-02-28T16:59:21;7.82;;;5.30;;
30307;SDS011;17114;52.314;8.910;2023-02-28T17:01:50;5.57;;;3.60;;
30307;SDS011;17114;52.314;8.910;2023-02-28T17:04:18;10.88;;;5.93;;
30307;SDS011;17114;52.314;8.910;2023-02-28T17:06:45;7.90;;;5.00;;
30307;SDS011;17114;52.314;8.910;2023-02-28T17:09:16;7.82;;;4.22;;
30307;SDS011;17114;52.314;8.910;2023-02-28T17:11:47;9.15;;;4.65;;
30307;SDS011;17114;52.314;8.910;2023-02-28T17:14:14;8.43;;;4.25;;
30307;SDS011;17114;52.314;8.910;2023-02-28T17:16:42;10.60;;;5.68;;
30307;SDS011;17114;52.314;8.910;2023-02-28T17:19:11;12.20;;;6.07;;
30307;SDS011;17114;52.314;8.910;2023-02-28T17:21:39;12.25;;;7.15;;
30307;SDS011;17114;52.314;8.910;2023-02-28T17:24:10;11.75;;;5.63;;